createdAt,value
2022-12-11T05:53:39.881Z,-1.83
2022-12-11T05:56:10.777Z,-1.86
2022-12-11T05:58:37.908Z,-1.89
2022-12-11T06:01:10.380Z,-1.95
2022-12-11T06:03:37.401Z,-1.99
2022-12-11T06:06:05.447Z,-1.95
2022-12-11T06:08:32.481Z,-1.93
2022-12-11T06:10:58.955Z,-1.86
2022-12-11T06:13:26.135Z,-1.90
2022-12-11T06:15:53.005Z,-2.13
2022-12-11T06:18:19.527Z,-2.33
2022-12-11T06:20:46.003Z,-2.36
2022-12-11T06:23:12.931Z,-2.47
2022-12-11T06:25:39.929Z,-2.55
2022-12-11T06:28:06.438Z,-2.62
2022-12-11T06:30:39.139Z,-2.72
2022-12-11T06:33:06.716Z,-2.76
2022-12-11T06:35:38.598Z,-2.76
2022-12-11T06:38:08.497Z,-2.81
2022-12-11T06:40:35.005Z,-2.69
2022-12-11T06:43:01.570Z,-2.74
2022-12-11T06:45:28.085Z,-2.74
2022-12-11T06:47:54.760Z,-2.78
2022-12-11T06:50:21.204Z,-2.83
2022-12-11T06:52:47.674Z,-2.82
2022-12-11T06:55:14.290Z,-2.91
2022-12-11T06:57:40.796Z,-2.90
2022-12-11T07:00:07.959Z,-2.97
2022-12-11T07:02:34.505Z,-2.80
2022-12-11T07:05:01.078Z,-2.83
2022-12-11T07:07:27.583Z,-2.44
2022-12-11T07:09:54.088Z,-2.26
2022-12-11T07:12:21.080Z,-2.05
2022-12-11T07:14:47.571Z,-1.84
2022-12-11T07:17:14.283Z,-1.92
2022-12-11T07:19:41.001Z,-1.86
2022-12-11T07:22:07.695Z,-1.74
2022-12-11T07:24:34.294Z,-1.65
2022-12-11T07:27:00.741Z,-1.43
2022-12-11T07:29:27.297Z,-1.46
2022-12-11T07:31:53.889Z,-1.55
2022-12-11T07:34:20.425Z,-1.52
2022-12-11T07:36:46.905Z,-1.80
2022-12-11T07:39:13.658Z,-1.29
2022-12-11T07:41:40.393Z,-1.59
2022-12-11T07:44:10.464Z,-1.52
2022-12-11T07:46:40.169Z,-1.21
2022-12-11T07:49:06.942Z,-1.45
2022-12-11T07:51:37.059Z,-1.49
2022-12-11T07:54:16.430Z,-1.51
2022-12-11T07:56:46.465Z,-1.35
2022-12-11T07:59:15.727Z,-1.11
2022-12-11T08:01:42.708Z,-1.05
2022-12-11T08:04:11.479Z,-0.78
2022-12-11T08:06:40.040Z,-0.84
2022-12-11T08:09:09.583Z,-0.54
2022-12-11T08:11:36.283Z,-0.25
2022-12-11T08:14:03.207Z,0.23
2022-12-11T08:16:29.797Z,0.18
2022-12-11T08:18:56.422Z,0.80
2022-12-11T08:21:26.003Z,0.53
2022-12-11T08:23:53.471Z,1.03
2022-12-11T08:26:23.875Z,0.79
2022-12-11T08:28:51.241Z,0.58
2022-12-11T08:31:18.255Z,0.76
2022-12-11T08:33:45.790Z,0.72
2022-12-11T08:36:15.133Z,0.57
2022-12-11T08:38:42.353Z,0.26
2022-12-11T08:41:20.815Z,0.61
2022-12-11T08:43:49.214Z,0.15
2022-12-11T08:46:16.105Z,0.39
2022-12-11T08:48:43.260Z,0.35
2022-12-11T08:51:15.883Z,0.14
2022-12-11T08:53:43.615Z,0.22
2022-12-11T08:56:13.548Z,0.80
2022-12-11T08:58:40.561Z,0.92
2022-12-11T09:01:26.861Z,0.64
2022-12-11T09:03:55.059Z,0.65
2022-12-11T09:06:23.836Z,0.69
2022-12-11T09:08:53.286Z,0.65
2022-12-11T09:11:23.368Z,0.66
2022-12-11T09:13:49.921Z,0.38
2022-12-11T09:16:18.293Z,0.08
2022-12-11T09:18:47.480Z,0.29
2022-12-11T09:21:15.674Z,-0.03
2022-12-11T09:23:42.535Z,-0.77
2022-12-11T09:26:12.422Z,-0.51
2022-12-11T09:28:45.757Z,-0.50
2022-12-11T09:31:18.533Z,-0.72
2022-12-11T09:33:45.550Z,-0.36
2022-12-11T09:36:12.420Z,-0.42
2022-12-11T09:38:39.516Z,-0.47
2022-12-11T09:41:18.101Z,-0.10
2022-12-11T09:43:50.083Z,0.18
2022-12-11T09:46:17.864Z,-0.19
2022-12-11T09:48:49.143Z,-0.09
2022-12-11T09:51:49.257Z,0.24
2022-12-11T09:54:15.761Z,0.28
2022-12-11T09:56:58.485Z,0.38
2022-12-11T09:59:38.027Z,0.62
2022-12-11T10:02:13.888Z,0.96
2022-12-11T10:05:14.380Z,-0.14
2022-12-11T10:07:51.806Z,0.16
2022-12-11T10:10:37.300Z,0.17
2022-12-11T10:13:11.419Z,-0.29
2022-12-11T10:15:54.331Z,0.25
2022-12-11T10:18:23.656Z,0.20
2022-12-11T10:20:52.665Z,-0.23
2022-12-11T10:23:30.410Z,0.35
2022-12-11T10:26:18.783Z,-0.21
2022-12-11T10:28:45.250Z,-0.23
2022-12-11T10:31:48.749Z,0.03
2022-12-11T10:34:28.739Z,0.31
2022-12-11T10:37:00.319Z,-0.14
2022-12-11T10:39:27.904Z,0.24
2022-12-11T10:41:56.111Z,-0.01
2022-12-11T10:44:30.472Z,-0.38
2022-12-11T10:47:10.685Z,0.06
2022-12-11T10:49:39.632Z,0.00
2022-12-11T10:52:38.171Z,-0.19
2022-12-11T10:55:08.269Z,-0.44
2022-12-11T10:57:37.016Z,0.00
2022-12-11T11:00:07.163Z,0.35
2022-12-11T11:02:40.149Z,0.25
2022-12-11T11:05:27.388Z,0.12
2022-12-11T11:08:14.360Z,0.65
2022-12-11T11:10:56.590Z,0.52
2022-12-11T11:13:25.419Z,0.97
2022-12-11T11:16:13.194Z,0.96
2022-12-11T11:18:41.157Z,1.09
2022-12-11T11:21:16.920Z,0.99
2022-12-11T11:23:47.229Z,0.35
2022-12-11T11:26:18.174Z,0.08
2022-12-11T11:28:50.951Z,0.06
2022-12-11T11:31:19.439Z,0.33
2022-12-11T11:33:52.714Z,0.13
2022-12-11T11:36:23.744Z,0.22
2022-12-11T11:39:23.154Z,0.03
2022-12-11T11:41:58.557Z,-0.84
2022-12-11T11:44:33.755Z,-0.16
2022-12-11T11:47:05.855Z,0.37
2022-12-11T11:49:44.321Z,0.21
2022-12-11T11:52:13.887Z,0.63
2022-12-11T11:54:52.874Z,0.43
2022-12-11T11:57:37.588Z,1.42
2022-12-11T12:00:17.335Z,1.59
2022-12-11T12:02:46.935Z,2.37
2022-12-11T12:05:13.843Z,2.73
2022-12-11T12:08:14.676Z,3.28
2022-12-11T12:10:47.097Z,1.79
2022-12-11T12:16:58.736Z,1.95
2022-12-11T12:19:44.004Z,4.06
2022-12-11T12:22:31.135Z,2.67
2022-12-11T12:25:16.364Z,2.35
2022-12-11T12:27:52.849Z,2.24
2022-12-11T12:30:23.310Z,2.51
2022-12-11T12:33:22.315Z,6.29
2022-12-11T12:36:06.403Z,6.56
2022-12-11T12:38:41.047Z,3.87
2022-12-11T12:41:15.516Z,2.34
2022-12-11T12:44:19.968Z,1.38
2022-12-11T12:46:58.336Z,0.72
2022-12-11T12:49:34.462Z,1.13
2022-12-11T12:52:02.987Z,1.15
2022-12-11T12:54:31.831Z,1.24
2022-12-11T12:56:59.457Z,0.73
2022-12-11T12:59:27.794Z,0.89
2022-12-11T13:02:01.005Z,0.27
2022-12-11T13:04:55.960Z,0.50
2022-12-11T13:07:29.560Z,0.82
2022-12-11T13:09:57.927Z,1.14
2022-12-11T13:12:52.665Z,0.95
2022-12-11T13:15:45.182Z,2.20
2022-12-11T13:18:35.008Z,1.88
2022-12-11T13:21:03.654Z,1.06
2022-12-11T13:23:32.905Z,0.64
2022-12-11T13:26:04.467Z,0.64
2022-12-11T13:28:33.800Z,0.10
2022-12-11T13:31:08.093Z,0.11
2022-12-11T13:33:41.495Z,-0.01
2022-12-11T13:36:16.697Z,0.14
2022-12-11T13:39:00.497Z,-0.06
2022-12-11T13:41:28.524Z,0.32
2022-12-11T13:43:55.582Z,-0.19
2022-12-11T13:46:29.216Z,-0.10
2022-12-11T13:49:00.890Z,0.19
2022-12-11T13:51:30.236Z,-0.38
2022-12-11T13:54:16.472Z,-0.38
2022-12-11T13:57:00.972Z,-0.03
2022-12-11T13:59:41.599Z,-0.22
2022-12-11T14:02:29.735Z,-0.43
2022-12-11T14:05:00.055Z,-0.65
2022-12-11T14:07:30.607Z,-0.76
2022-12-11T14:10:05.589Z,-0.78
2022-12-11T14:12:32.710Z,-0.70
2022-12-11T14:15:02.027Z,-1.08
2022-12-11T14:17:31.464Z,-0.92
2022-12-11T14:20:01.047Z,-0.97
2022-12-11T14:22:30.043Z,-1.04
2022-12-11T14:25:03.532Z,-0.91
2022-12-11T14:27:30.227Z,-1.17
2022-12-11T14:29:56.705Z,-1.24
2022-12-11T14:32:35.222Z,-0.89
2022-12-11T14:35:05.301Z,-0.87
2022-12-11T14:37:34.370Z,-1.09
2022-12-11T14:40:08.200Z,-1.00
2022-12-11T14:42:40.936Z,-1.19
2022-12-11T14:45:18.428Z,-1.29
2022-12-11T14:47:45.401Z,-1.98
2022-12-11T14:50:27.402Z,-1.70
2022-12-11T14:52:59.717Z,-1.62
2022-12-11T14:55:30.729Z,-1.59
2022-12-11T14:58:02.536Z,-1.43
2022-12-11T15:00:37.911Z,-1.56
2022-12-11T15:03:16.961Z,-1.44
2022-12-11T15:05:51.379Z,-1.26
2022-12-11T15:08:24.917Z,-0.90
2022-12-11T15:11:01.002Z,-1.13
2022-12-11T15:13:27.613Z,-1.46
2022-12-11T15:15:56.111Z,-1.44
2022-12-11T15:18:29.751Z,-1.35
2022-12-11T15:21:09.464Z,-1.24
2022-12-11T15:23:55.283Z,-1.05
2022-12-11T15:26:33.704Z,-1.05
2022-12-11T15:29:02.595Z,-1.23
2022-12-11T15:31:31.793Z,-0.99
2022-12-11T15:33:58.868Z,-1.07
2022-12-11T15:36:31.295Z,-1.05
2022-12-11T15:38:58.537Z,-0.92
2022-12-11T15:41:25.710Z,-1.14
2022-12-11T15:43:58.518Z,-1.16
2022-12-11T15:46:26.333Z,-1.34
2022-12-11T15:48:53.255Z,-1.46
2022-12-11T15:51:19.727Z,-1.11
2022-12-11T15:53:46.249Z,-1.21
2022-12-11T15:56:16.517Z,-1.47
2022-12-11T15:58:45.655Z,-1.56
2022-12-11T16:01:12.279Z,-1.59
2022-12-11T16:03:38.864Z,-1.86
2022-12-11T16:06:05.531Z,-1.70
2022-12-11T16:08:32.223Z,-1.79
2022-12-11T16:10:58.813Z,-1.55
2022-12-11T16:13:25.364Z,-1.27
2022-12-11T16:15:53.717Z,-0.77
2022-12-11T16:18:22.729Z,-1.19
2022-12-11T16:20:51.050Z,-1.30
2022-12-11T16:23:18.529Z,-1.56
2022-12-11T16:25:45.796Z,-1.46
2022-12-11T16:28:14.235Z,-1.65
2022-12-11T16:30:42.138Z,-1.61
2022-12-11T16:33:12.899Z,-1.61
2022-12-11T16:35:41.463Z,-1.83
2022-12-11T16:38:09.873Z,-1.91
2022-12-11T16:40:37.094Z,-2.12
2022-12-11T16:43:05.051Z,-1.94
2022-12-11T16:45:32.310Z,-1.77
2022-12-11T16:47:58.967Z,-1.62
2022-12-11T16:50:25.936Z,-1.56
2022-12-11T16:52:52.439Z,-1.58
2022-12-11T16:55:22.107Z,-1.59
2022-12-11T16:57:48.780Z,-1.66
2022-12-11T17:00:18.828Z,-1.51
2022-12-11T17:02:45.465Z,-1.39
2022-12-11T17:05:12.450Z,-1.10
2022-12-11T17:07:40.312Z,-1.04
2022-12-11T17:10:07.424Z,-1.26
2022-12-11T17:12:33.957Z,-1.21
2022-12-11T17:15:00.500Z,-1.07
2022-12-11T17:17:27.042Z,-1.05
2022-12-11T17:19:55.715Z,-1.09
2022-12-11T17:22:22.789Z,-1.38
2022-12-11T17:24:49.595Z,-1.18
2022-12-11T17:27:16.312Z,-1.30
2022-12-11T17:29:42.873Z,-1.08
2022-12-11T17:32:09.419Z,-1.14
2022-12-11T17:34:38.602Z,-1.13
2022-12-11T17:37:05.967Z,-1.32
2022-12-11T17:39:32.848Z,-1.40
2022-12-11T17:41:59.407Z,-1.65
2022-12-11T17:44:26.643Z,-1.34
2022-12-11T17:46:53.573Z,-1.11
2022-12-11T17:49:20.244Z,-0.86
2022-12-11T17:51:47.948Z,-0.96
2022-12-11T17:54:14.530Z,-1.26
2022-12-11T17:56:41.376Z,-1.23
2022-12-11T17:59:24.927Z,-1.21
2022-12-11T18:01:51.473Z,-0.99
2022-12-11T18:04:40.274Z,-1.00
2022-12-11T18:07:27.138Z,-0.70
2022-12-11T18:10:14.277Z,-0.74
2022-12-11T18:13:01.118Z,-0.92
2022-12-11T18:15:59.331Z,-1.50
2022-12-11T18:18:47.749Z,-1.43
2022-12-11T18:21:40.294Z,-0.98
2022-12-11T18:24:31.681Z,-1.30
2022-12-11T18:27:18.542Z,-1.25
2022-12-11T18:30:05.916Z,-1.31
2022-12-11T18:32:52.762Z,-1.03
2022-12-11T18:35:40.645Z,-0.94
2022-12-11T18:38:27.506Z,-1.10
2022-12-11T18:41:16.471Z,-1.14
2022-12-11T18:44:09.312Z,-0.84
2022-12-11T18:46:56.961Z,-0.68
2022-12-11T18:49:43.931Z,-0.63
2022-12-11T18:52:30.851Z,-0.98
2022-12-11T18:55:17.723Z,-1.37
2022-12-11T18:58:04.575Z,-0.83
2022-12-11T19:00:51.612Z,-0.87
2022-12-11T19:03:38.414Z,-0.87
2022-12-11T19:06:28.599Z,-0.75
2022-12-11T19:09:15.567Z,-0.58
2022-12-11T19:12:02.484Z,-0.78
2022-12-11T19:14:49.370Z,-0.79
2022-12-11T19:17:37.085Z,-0.72
2022-12-11T19:23:31.720Z,-0.84
2022-12-11T19:26:21.576Z,-1.11
2022-12-11T19:29:13.554Z,-1.22
2022-12-11T19:32:04.421Z,-1.08
2022-12-11T19:34:55.001Z,-1.08
2022-12-11T19:37:41.925Z,-0.85
2022-12-11T19:40:28.892Z,-1.04
2022-12-11T19:43:15.816Z,-0.61
2022-12-11T19:46:06.471Z,-0.60
2022-12-11T19:48:54.847Z,-1.06
2022-12-11T19:51:42.458Z,-1.06
2022-12-11T19:54:29.321Z,-0.91
2022-12-11T19:57:16.170Z,-0.64
2022-12-11T20:00:03.568Z,-0.50
2022-12-11T20:02:59.048Z,-0.80
2022-12-11T20:05:46.169Z,-0.98
2022-12-11T20:08:44.584Z,-0.77
2022-12-11T20:11:33.029Z,-0.74
2022-12-11T20:14:25.968Z,-0.57
2022-12-11T20:17:14.455Z,-0.83
2022-12-11T20:20:02.158Z,-0.66
2022-12-11T20:22:52.688Z,-0.79
2022-12-11T20:25:40.394Z,-0.72
2022-12-11T20:28:27.273Z,-0.77
2022-12-11T20:31:20.016Z,-0.68
2022-12-11T20:34:07.762Z,-0.92
2022-12-11T20:36:55.559Z,-1.21
2022-12-11T20:39:42.494Z,-1.08
2022-12-11T20:42:29.459Z,-1.11
2022-12-11T20:45:16.570Z,-1.06
2022-12-11T20:48:03.477Z,-0.98
2022-12-11T20:50:50.353Z,-1.29
